Cape Girardeau Regional Airport
KCGI : rendu visible

Aérodrome :











RETROUVEZ-NOUS SUR...

 
LOGIN :

S'inscrire | Disclaimer

   EN    FR    IT 

 









Légende :    VFR   VFR Marginal   IFR   IFR Intensif   IFR Très Intensif
Visi : 
Plafond : 
>= 8 km
>= 3000ft
5 à 8 km
1000 à 3000 ft
1500m à 5 km
500 à 1000 ft
800 à 1500m
200 à 500 ft
< 800m
< 200 ft
Symboles :   Orages  Brouillard  Fortes neiges  Fortes précipitations  Vent > 20 kt







- Altitude de l'aérodrome : 342 ft
- Code IATA : CGI


KCGI - Cape Girardeau Regional

DERNIER METAR :
  • 191353Z 18013KT 10SM FEW065 OVC095 19/18 A2977 RMK AO2 RAE12 SLP077 P0000 T01940178

METARs EXPIRÉS :
  • 191253Z 17015G27KT 10SM -RA FEW075 OVC090 19/16 A2978 RMK AO2 PK WND 17027/1251 PRESFR SLP079 P0009 T01890161
  • 191230Z 19010KT 10SM -RA SCT009 BKN055 OVC085 19/17 A2980 RMK AO2 P0008 T01890172
  • 191153Z 19012G20KT 9SM RA FEW015 BKN050 OVC075 19/17 A2981 RMK AO2 SLP090 P0020 60035 70040 T01890172 10194 20183 51019

TAF KCGI
Valide du 19 à 14h jusqu'au 20 à 12h UTC


191411Z 1914/2012 20015G25KT P6SM BKN090
TEMPO 1915/1917 BKN025
FM191800 22015G24KT P6SM SCT050
FM192300 25010KT P6SM SCT060
FM200400 32006KT P6SM FEW040
FIR KZME / Amérique du Nord



MET'MAP, la Météo Aéronautique d'un coup d'oeil ! - Copyright ORBIFLY Décembre 2007 - Disclaimer

ORBIFLY MET'MAP TEAM :

Programmation & Développement : Alexandra Zaïnal
Conception & Développement : Baudouin d'Aumeries
Co-Programmation & Développement : Marc-Olivier Méhu
Soutien technique & logistique : Manuel Goepfert

Contact : metmap@orbifly.com




SOURCES & CREDITS :

   NOAA       Earth
Advisory